Time;durP1;ratioP1;P1;durP2;ratioP2;P2;SDS_P1;SDS_P2;PMS_P1;PMS_P2;Temp;Humidity;BMP_temperature;BMP_pressure;BME280_temperature;BME280_humidity;BME280_pressure;Samples;Min_cycle;Max_cycle;Signal;HPM_P1;HPM_P2
2021/01/16 00:02:01;;;;;;;30.13;12.87;;;0.70;92.30;;;;;;5047095;28;20204;-74
2021/01/16 00:04:27;;;;;;;31.75;14.60;;;0.60;92.20;;;;;;5045792;28;20177;-74
2021/01/16 00:06:53;;;;;;;29.23;14.03;;;0.50;92.40;;;;;;5046990;28;20176;-74
2021/01/16 00:09:20;;;;;;;28.03;12.93;;;0.50;92.50;;;;;;5049294;28;20419;-73
2021/01/16 00:11:49;;;;;;;28.95;14.02;;;0.60;92.50;;;;;;5058750;28;20431;-74
2021/01/16 00:14:15;;;;;;;29.48;13.13;;;0.60;92.20;;;;;;5062206;28;20666;-73
2021/01/16 00:16:41;;;;;;;26.30;12.30;;;0.60;92.20;;;;;;5047609;28;20184;-73
2021/01/16 00:19:07;;;;;;;24.77;12.65;;;0.60;92.30;;;;;;5048101;28;20188;-73
2021/01/16 00:21:33;;;;;;;28.50;12.80;;;0.60;92.00;;;;;;5046712;28;20180;-74
2021/01/16 00:23:58;;;;;;;29.60;13.03;;;0.60;92.00;;;;;;5044996;28;20481;-72
2021/01/16 00:26:24;;;;;;;26.40;13.43;;;0.60;91.90;;;;;;5045402;28;20858;-74
2021/01/16 00:28:50;;;;;;;29.60;12.40;;;0.50;92.10;;;;;;5043436;28;20192;-74
2021/01/16 00:31:15;;;;;;;30.17;14.80;;;0.60;91.90;;;;;;5049898;28;20678;-73
2021/01/16 00:33:42;;;;;;;25.30;11.30;;;0.50;92.00;;;;;;5050337;28;20351;-74
2021/01/16 00:36:09;;;;;;;28.65;13.75;;;0.60;92.00;;;;;;5048369;28;20621;-74
2021/01/16 00:38:40;;;;;;;30.55;12.77;;;0.50;92.00;;;;;;5050594;28;20557;-74
2021/01/16 00:41:06;;;;;;;27.13;11.45;;;0.50;92.10;;;;;;5049495;28;20279;-73
2021/01/16 00:43:31;;;;;;;34.43;14.93;;;0.50;92.00;;;;;;5054370;28;20300;-76
2021/01/16 00:45:57;;;;;;;36.77;16.30;;;0.50;92.10;;;;;;5055291;28;20218;-74
2021/01/16 00:48:24;;;;;;;26.57;12.80;;;0.50;92.20;;;;;;5068000;28;20853;-74
2021/01/16 00:50:57;;;;;;;26.48;13.05;;;0.50;92.40;;;;;;5063021;28;20406;-75
2021/01/16 00:53:23;;;;;;;29.98;12.73;;;0.60;92.30;;;;;;5065281;28;20315;-75
2021/01/16 00:55:52;;;;;;;29.50;12.93;;;0.70;92.10;;;;;;5051441;28;20215;-75
2021/01/16 00:58:20;;;;;;;33.30;14.18;;;0.60;92.00;;;;;;5052693;28;20189;-74
2021/01/16 01:00:47;;;;;;;32.58;13.82;;;0.70;92.00;;;;;;5048237;28;20708;-75
2021/01/16 01:03:18;;;;;;;35.58;13.50;;;0.70;91.80;;;;;;5051883;28;20212;-74
2021/01/16 01:05:44;;;;;;;29.15;14.55;;;0.70;91.60;;;;;;5050879;28;20201;-74
2021/01/16 01:08:10;;;;;;;29.23;13.20;;;0.70;91.60;;;;;;5052123;28;20263;-74
2021/01/16 01:10:44;;;;;;;33.97;14.80;;;0.60;91.70;;;;;;5050203;28;20279;-74
2021/01/16 01:13:10;;;;;;;32.67;14.63;;;0.50;91.80;;;;;;5045366;28;20427;-74
2021/01/16 01:15:37;;;;;;;28.57;13.13;;;0.50;91.90;;;;;;5056502;28;20208;-74
2021/01/16 01:18:03;;;;;;;33.70;14.32;;;0.60;91.90;;;;;;5037313;28;20439;-73
2021/01/16 01:20:30;;;;;;;34.72;14.68;;;0.50;91.90;;;;;;5051307;28;20181;-74
2021/01/16 01:22:56;;;;;;;32.28;14.90;;;0.50;91.80;;;;;;5050355;28;21003;-73
2021/01/16 01:25:23;;;;;;;32.92;13.63;;;0.50;91.80;;;;;;5050144;28;20312;-75
2021/01/16 01:27:54;;;;;;;30.45;14.00;;;0.50;91.90;;;;;;5057796;28;20179;-74
2021/01/16 01:30:22;;;;;;;39.20;14.77;;;0.50;92.00;;;;;;5069742;28;20619;-73
2021/01/16 01:32:48;;;;;;;29.40;13.75;;;0.50;91.90;;;;;;5051509;28;20212;-73
2021/01/16 01:35:15;;;;;;;27.42;13.73;;;0.50;92.00;;;;;;5050501;28;20698;-74
2021/01/16 01:37:43;;;;;;;37.53;15.23;;;0.60;92.20;;;;;;5060117;28;20643;-75
2021/01/16 01:40:14;;;;;;;31.02;14.38;;;0.60;91.80;;;;;;5066685;28;20213;-74
2021/01/16 01:42:40;;;;;;;36.22;15.60;;;0.60;91.50;;;;;;5051190;28;20204;-74
2021/01/16 01:45:08;;;;;;;36.85;13.40;;;0.60;91.40;;;;;;5050179;28;20556;-73
2021/01/16 01:47:36;;;;;;;31.40;13.65;;;0.60;91.20;;;;;;5061396;28;20341;-74
2021/01/16 01:50:02;;;;;;;27.35;13.15;;;0.60;91.20;;;;;;5053765;28;20181;-74
2021/01/16 01:52:29;;;;;;;34.67;15.45;;;0.60;91.30;;;;;;5051217;28;20191;-73
2021/01/16 01:54:56;;;;;;;32.17;14.45;;;0.60;91.40;;;;;;5067975;28;20199;-74
2021/01/16 01:57:24;;;;;;;40.30;15.52;;;0.60;91.40;;;;;;5059680;28;20176;-75
2021/01/16 01:59:52;;;;;;;31.83;14.05;;;0.60;91.50;;;;;;5050502;28;20181;-75
2021/01/16 02:02:20;;;;;;;36.72;14.18;;;0.60;91.30;;;;;;5049695;28;20219;-74
2021/01/16 02:04:47;;;;;;;35.17;14.65;;;0.60;91.20;;;;;;5055277;28;20709;-74
2021/01/16 02:07:27;;;;;;;33.88;14.77;;;0.60;91.40;;;;;;5057054;28;20630;-74
2021/01/16 02:09:54;;;;;;;32.67;13.93;;;0.60;91.40;;;;;;5038362;28;20263;-75
2021/01/16 02:12:24;;;;;;;35.35;13.95;;;0.70;91.40;;;;;;5050816;28;20189;-74
2021/01/16 02:15:28;;;;;;;35.92;13.65;;;0.70;91.40;;;;;;5050112;28;20224;-77
2021/01/16 02:17:59;;;;;;;31.35;15.27;;;0.70;91.30;;;;;;5050486;28;20184;-75
2021/01/16 02:20:36;;;;;;;35.42;15.43;;;0.70;91.20;;;;;;5050297;28;20176;-75
2021/01/16 02:23:11;;;;;;;35.90;14.77;;;0.70;91.10;;;;;;5051202;28;20208;-75
2021/01/16 02:25:43;;;;;;;43.75;16.52;;;0.60;91.30;;;;;;5051211;28;20214;-76
2021/01/16 02:28:12;;;;;;;37.58;15.60;;;0.70;91.60;;;;;;5062113;28;20211;-74
2021/01/16 02:30:41;;;;;;;33.38;17.08;;;0.60;91.50;;;;;;5059012;28;20190;-74
2021/01/16 02:33:10;;;;;;;35.17;15.85;;;0.70;91.50;;;;;;5062003;28;20608;-74
2021/01/16 02:35:50;;;;;;;35.15;14.38;;;0.70;91.40;;;;;;5052014;28;20208;-75
2021/01/16 02:38:30;;;;;;;31.80;13.90;;;0.70;91.20;;;;;;5063262;28;20191;-74
2021/01/16 02:41:27;;;;;;;32.50;14.45;;;0.80;91.40;;;;;;5070063;28;20187;-75
2021/01/16 02:44:28;;;;;;;41.13;15.25;;;0.90;91.20;;;;;;5064365;28;20218;-73
2021/01/16 02:47:00;;;;;;;31.08;14.57;;;0.90;90.90;;;;;;5023151;28;20224;-74
2021/01/16 02:49:29;;;;;;;30.15;13.57;;;0.80;90.50;;;;;;5052894;28;20360;-75
2021/01/16 02:52:09;;;;;;;39.63;15.95;;;0.80;90.80;;;;;;5056676;28;20192;-75
2021/01/16 02:54:40;;;;;;;39.47;15.48;;;0.80;91.20;;;;;;5066674;28;20235;-72
2021/01/16 02:57:08;;;;;;;35.63;15.55;;;0.80;91.20;;;;;;5050042;28;20183;-73
2021/01/16 02:59:40;;;;;;;33.03;14.75;;;0.70;91.30;;;;;;5050150;28;20705;-73
2021/01/16 03:02:08;;;;;;;35.92;15.25;;;0.60;91.30;;;;;;5049750;28;20295;-75
2021/01/16 03:04:34;;;;;;;34.83;15.15;;;0.70;91.40;;;;;;5049275;28;20224;-73
2021/01/16 03:07:02;;;;;;;29.00;13.98;;;0.70;91.30;;;;;;5049520;28;20187;-73
2021/01/16 03:09:30;;;;;;;31.30;14.82;;;0.70;91.30;;;;;;5047804;28;20192;-74
2021/01/16 03:11:57;;;;;;;30.98;14.18;;;0.70;91.00;;;;;;5060404;28;20180;-74
2021/01/16 03:14:26;;;;;;;40.25;15.95;;;0.80;91.30;;;;;;5068570;28;20267;-72
2021/01/16 03:17:08;;;;;;;33.20;15.80;;;0.80;91.30;;;;;;5057286;28;20189;-72
2021/01/16 03:19:36;;;;;;;32.03;14.93;;;0.70;91.10;;;;;;5049194;28;20290;-72
2021/01/16 03:22:24;;;;;;;35.28;14.27;;;0.80;91.30;;;;;;5049536;28;20211;-73
2021/01/16 03:24:53;;;;;;;36.05;15.77;;;0.80;91.30;;;;;;5047023;28;20250;-74
2021/01/16 03:27:20;;;;;;;34.30;15.45;;;0.70;91.20;;;;;;5047878;28;20193;-73
2021/01/16 03:29:46;;;;;;;38.60;16.75;;;0.80;91.40;;;;;;5047674;28;20192;-72
2021/01/16 03:32:13;;;;;;;38.88;15.85;;;0.90;91.30;;;;;;5049654;28;20556;-73
2021/01/16 03:34:43;;;;;;;33.85;15.75;;;0.80;91.20;;;;;;5049058;28;20227;-73
2021/01/16 03:37:10;;;;;;;38.13;15.45;;;0.70;91.20;;;;;;5049937;28;20655;-72
2021/01/16 03:39:36;;;;;;;34.95;15.63;;;0.80;91.40;;;;;;5049965;28;20188;-73
2021/01/16 03:42:03;;;;;;;44.60;15.80;;;0.70;91.30;;;;;;5050503;28;20189;-72
2021/01/16 03:44:29;;;;;;;33.67;16.35;;;0.60;91.40;;;;;;5049164;28;20236;-73
2021/01/16 03:46:55;;;;;;;34.17;16.17;;;0.60;91.50;;;;;;5050222;28;20272;-72
2021/01/16 03:49:21;;;;;;;36.43;16.17;;;0.60;91.60;;;;;;5048610;28;20614;-73
2021/01/16 03:51:47;;;;;;;33.80;16.13;;;0.70;91.70;;;;;;5047458;28;20430;-72
2021/01/16 03:54:13;;;;;;;36.57;15.57;;;0.80;91.70;;;;;;5048485;28;20425;-72
2021/01/16 03:56:38;;;;;;;33.07;15.00;;;0.70;91.60;;;;;;5048604;28;20534;-74
2021/01/16 03:59:04;;;;;;;36.17;15.57;;;0.80;91.70;;;;;;5049867;28;20411;-75
2021/01/16 04:01:32;;;;;;;39.70;15.47;;;0.80;91.50;;;;;;5049535;28;20828;-75
2021/01/16 04:03:58;;;;;;;40.38;16.85;;;0.70;91.40;;;;;;5049256;28;20761;-73
2021/01/16 04:06:24;;;;;;;34.67;16.70;;;0.70;91.50;;;;;;5047281;28;20204;-74
2021/01/16 04:08:50;;;;;;;39.50;17.43;;;0.60;91.50;;;;;;5048297;28;20183;-73
2021/01/16 04:11:15;;;;;;;39.00;16.87;;;0.70;91.60;;;;;;5048414;28;20204;-73
2021/01/16 04:13:41;;;;;;;43.90;18.23;;;0.70;91.80;;;;;;5050264;28;20264;-73
2021/01/16 04:16:07;;;;;;;49.20;18.57;;;0.70;91.80;;;;;;5047583;28;20200;-73
2021/01/16 04:18:34;;;;;;;41.03;17.05;;;0.70;91.70;;;;;;5049337;28;20180;-73
2021/01/16 04:21:00;;;;;;;49.72;16.98;;;0.70;91.70;;;;;;5048502;28;20192;-72
2021/01/16 04:23:25;;;;;;;43.00;17.95;;;0.60;91.60;;;;;;5048761;28;20275;-74
2021/01/16 04:25:51;;;;;;;38.40;16.47;;;0.60;91.80;;;;;;5047252;28;20228;-74
2021/01/16 04:28:17;;;;;;;40.00;16.33;;;0.60;91.90;;;;;;5058516;28;20213;-73
2021/01/16 04:30:43;;;;;;;41.03;16.90;;;0.60;91.90;;;;;;5047033;28;20189;-73
2021/01/16 04:33:08;;;;;;;36.77;16.70;;;0.60;91.90;;;;;;5057069;28;20207;-74
2021/01/16 04:35:34;;;;;;;51.83;18.87;;;0.60;91.80;;;;;;5062591;28;20289;-74
2021/01/16 04:38:00;;;;;;;43.67;17.00;;;0.50;92.00;;;;;;5048599;28;20227;-72
2021/01/16 04:40:28;;;;;;;38.13;17.08;;;0.60;92.00;;;;;;5047078;28;21179;-75
2021/01/16 04:42:55;;;;;;;35.05;15.60;;;0.50;91.80;;;;;;5050244;28;20211;-74
2021/01/16 04:45:21;;;;;;;38.95;15.93;;;0.40;92.10;;;;;;5048270;28;20207;-73
2021/01/16 04:47:49;;;;;;;40.67;18.30;;;0.50;92.20;;;;;;5051136;28;20189;-73
2021/01/16 04:50:17;;;;;;;40.85;16.05;;;0.40;92.00;;;;;;5049978;28;20200;-73
2021/01/16 04:52:44;;;;;;;39.80;16.40;;;0.50;92.10;;;;;;5059940;28;20333;-73
2021/01/16 04:55:12;;;;;;;36.67;15.50;;;0.50;92.10;;;;;;5052587;28;20692;-73
2021/01/16 04:57:40;;;;;;;34.40;15.57;;;0.50;92.00;;;;;;5056580;28;20180;-73
2021/01/16 05:00:09;;;;;;;37.13;16.17;;;0.50;91.90;;;;;;5047694;28;20690;-73
2021/01/16 05:02:40;;;;;;;36.88;16.50;;;0.50;91.90;;;;;;5052655;28;20291;-75
2021/01/16 05:05:10;;;;;;;39.03;15.00;;;0.50;91.50;;;;;;5050359;28;20201;-74
2021/01/16 05:07:39;;;;;;;43.13;16.15;;;0.50;91.80;;;;;;5046672;28;20283;-73
2021/01/16 05:10:07;;;;;;;36.15;15.75;;;0.60;91.50;;;;;;5047949;28;20187;-73
2021/01/16 05:13:03;;;;;;;37.72;15.48;;;0.60;91.30;;;;;;5048561;28;20216;-74
2021/01/16 05:15:36;;;;;;;45.05;17.27;;;0.60;91.10;;;;;;5048533;28;20204;-73
2021/01/16 05:18:21;;;;;;;39.80;15.60;;;0.60;91.00;;;;;;5051926;28;20905;-76
2021/01/16 05:20:47;;;;;;;36.45;15.30;;;0.60;91.10;;;;;;5051156;28;20249;-74
2021/01/16 05:23:16;;;;;;;38.03;16.27;;;0.60;91.10;;;;;;5051647;28;20287;-73
2021/01/16 05:25:42;;;;;;;43.50;16.45;;;0.50;90.90;;;;;;5050223;28;20196;-76
2021/01/16 05:28:08;;;;;;;34.20;16.23;;;0.50;91.00;;;;;;5050135;28;20195;-74
2021/01/16 05:30:49;;;;;;;41.15;17.30;;;0.60;90.80;;;;;;5066794;28;20262;-74
2021/01/16 05:33:16;;;;;;;43.80;15.73;;;0.70;90.70;;;;;;5060271;28;20255;-73
2021/01/16 05:35:42;;;;;;;37.42;15.25;;;0.70;90.60;;;;;;5049262;28;20204;-74
2021/01/16 05:38:09;;;;;;;45.75;17.23;;;0.60;90.50;;;;;;5051686;28;20184;-72
2021/01/16 05:40:36;;;;;;;35.30;14.48;;;0.60;90.50;;;;;;5050749;28;20208;-73
2021/01/16 05:43:03;;;;;;;31.40;14.98;;;0.60;90.60;;;;;;5051280;28;20204;-73
2021/01/16 05:45:33;;;;;;;28.73;13.25;;;0.70;90.30;;;;;;5049743;28;20200;-73
2021/01/16 05:48:00;;;;;;;35.03;16.25;;;0.60;90.20;;;;;;5050222;28;20192;-74
2021/01/16 05:50:26;;;;;;;38.70;16.00;;;0.70;90.00;;;;;;5059310;28;20947;-74
2021/01/16 05:52:52;;;;;;;38.87;15.60;;;0.70;89.90;;;;;;5059098;28;20192;-74
2021/01/16 05:55:18;;;;;;;31.27;15.25;;;0.70;89.90;;;;;;5048628;28;20732;-73
2021/01/16 05:57:48;;;;;;;40.33;17.40;;;0.70;89.90;;;;;;5063068;28;20251;-74
2021/01/16 06:00:26;;;;;;;44.95;17.38;;;0.60;89.90;;;;;;5037795;28;21010;-73
2021/01/16 06:02:52;;;;;;;37.63;16.85;;;0.60;90.30;;;;;;5051394;28;20651;-72
2021/01/16 06:05:28;;;;;;;55.40;18.45;;;0.60;90.50;;;;;;5050380;28;20215;-74
2021/01/16 06:07:55;;;;;;;44.90;17.65;;;0.60;90.80;;;;;;5052462;28;20187;-72
2021/01/16 06:10:22;;;;;;;44.28;16.92;;;0.50;90.70;;;;;;5052342;28;20367;-72
2021/01/16 06:12:49;;;;;;;35.45;15.93;;;0.50;90.90;;;;;;5052976;28;20176;-72
2021/01/16 06:15:19;;;;;;;36.40;17.10;;;0.40;90.90;;;;;;5050729;28;20287;-73
2021/01/16 06:17:48;;;;;;;43.97;16.63;;;0.40;91.10;;;;;;5050856;28;20267;-73
2021/01/16 06:20:19;;;;;;;38.60;15.75;;;0.40;91.20;;;;;;5050834;28;20267;-72
2021/01/16 06:22:49;;;;;;;36.53;16.50;;;0.50;91.20;;;;;;5051204;28;20334;-72
2021/01/16 06:25:24;;;;;;;37.65;16.38;;;0.50;90.90;;;;;;5061903;28;20200;-74
2021/01/16 06:27:51;;;;;;;41.58;17.30;;;0.60;90.80;;;;;;5052912;28;20183;-74
2021/01/16 06:30:19;;;;;;;39.40;17.15;;;0.70;90.70;;;;;;5051889;28;20184;-73
2021/01/16 06:32:55;;;;;;;40.90;16.50;;;0.60;90.40;;;;;;5039096;28;20188;-74
2021/01/16 06:35:25;;;;;;;39.15;15.70;;;0.60;90.50;;;;;;5054357;28;20208;-72
2021/01/16 06:37:52;;;;;;;45.95;16.80;;;0.60;90.50;;;;;;5071323;28;20258;-72
2021/01/16 06:40:32;;;;;;;42.05;17.30;;;0.60;90.30;;;;;;5069714;28;20249;-72
2021/01/16 06:42:59;;;;;;;42.58;16.88;;;0.60;90.40;;;;;;5051082;28;20708;-72
2021/01/16 06:45:29;;;;;;;36.00;16.08;;;0.70;90.30;;;;;;5053869;28;20207;-73
2021/01/16 06:47:59;;;;;;;42.75;17.95;;;0.60;89.90;;;;;;5058909;28;20188;-73
2021/01/16 06:50:26;;;;;;;40.95;16.35;;;0.60;89.90;;;;;;5050275;28;20176;-72
2021/01/16 06:52:52;;;;;;;44.75;16.65;;;0.60;89.90;;;;;;5049209;28;20203;-73
2021/01/16 06:55:20;;;;;;;33.10;15.33;;;0.60;89.90;;;;;;5051851;28;20204;-73
2021/01/16 06:57:46;;;;;;;38.05;16.58;;;0.70;89.90;;;;;;5053690;28;20801;-73
2021/01/16 07:00:14;;;;;;;34.40;16.10;;;0.70;89.70;;;;;;5051366;28;20188;-73
2021/01/16 07:02:41;;;;;;;38.05;16.58;;;0.60;89.60;;;;;;5054316;28;20258;-72
2021/01/16 07:05:20;;;;;;;39.28;16.92;;;0.60;89.50;;;;;;5051003;28;20205;-72
2021/01/16 07:07:52;;;;;;;38.55;15.35;;;0.60;89.60;;;;;;5051552;28;20172;-73
2021/01/16 07:10:21;;;;;;;34.63;16.15;;;0.60;89.60;;;;;;5061150;28;20184;-72
2021/01/16 07:12:48;;;;;;;37.50;15.60;;;0.50;89.50;;;;;;5050206;28;20206;-72
2021/01/16 07:15:16;;;;;;;38.63;17.13;;;0.50;89.60;;;;;;5047483;28;20231;-73
2021/01/16 07:17:43;;;;;;;43.85;17.50;;;0.50;90.00;;;;;;5048230;28;20189;-74
2021/01/16 07:20:10;;;;;;;37.10;16.40;;;0.60;90.20;;;;;;5057891;28;20244;-73
2021/01/16 07:22:38;;;;;;;45.10;18.45;;;0.60;90.00;;;;;;5053036;28;20236;-72
2021/01/16 07:25:06;;;;;;;40.72;19.55;;;0.60;89.90;;;;;;5048630;28;20202;-73
2021/01/16 07:27:37;;;;;;;33.80;16.20;;;0.60;90.30;;;;;;5048283;28;20199;-72
2021/01/16 07:30:09;;;;;;;44.60;17.60;;;0.50;90.30;;;;;;5049521;28;20180;-73
2021/01/16 07:32:38;;;;;;;40.72;16.52;;;0.50;90.40;;;;;;5050072;28;20204;-73
2021/01/16 07:35:05;;;;;;;45.88;16.52;;;0.60;90.40;;;;;;5049057;28;20287;-72
2021/01/16 07:37:32;;;;;;;39.25;17.25;;;0.60;90.40;;;;;;5036710;28;20310;-73
2021/01/16 07:39:58;;;;;;;38.63;16.63;;;0.60;90.20;;;;;;5048211;28;20242;-72
2021/01/16 07:42:27;;;;;;;38.17;15.07;;;0.60;90.00;;;;;;5049264;28;20201;-72
2021/01/16 07:45:12;;;;;;;35.47;15.75;;;0.60;89.90;;;;;;5049409;28;20204;-73
2021/01/16 07:47:40;;;;;;;37.58;16.25;;;0.60;90.00;;;;;;5069436;28;20187;-73
2021/01/16 07:50:16;;;;;;;39.63;17.75;;;0.70;89.90;;;;;;5068863;28;20685;-73
2021/01/16 07:52:47;;;;;;;32.53;14.65;;;0.70;89.70;;;;;;5056189;28;20233;-73
2021/01/16 07:55:18;;;;;;;41.50;18.48;;;0.80;89.50;;;;;;5047973;28;20257;-73
2021/01/16 07:57:49;;;;;;;44.13;18.50;;;0.70;89.20;;;;;;5049140;28;20266;-73
2021/01/16 08:00:16;;;;;;;43.00;16.55;;;0.60;89.70;;;;;;5048873;28;20188;-72
2021/01/16 08:03:17;;;;;;;40.97;18.10;;;0.50;90.20;;;;;;5049757;28;20250;-73
2021/01/16 08:06:10;;;;;;;42.42;16.95;;;0.60;90.40;;;;;;5049321;28;20216;-72
2021/01/16 08:08:58;;;;;;;39.80;17.13;;;0.60;89.90;;;;;;5038151;28;20176;-73
2021/01/16 08:11:29;;;;;;;40.10;17.35;;;0.50;90.20;;;;;;5055061;28;20180;-72
2021/01/16 08:14:01;;;;;;;37.70;15.88;;;0.50;90.20;;;;;;5068865;28;20183;-74
2021/01/16 08:16:27;;;;;;;40.03;17.60;;;0.50;90.00;;;;;;5047092;28;20211;-73
2021/01/16 08:19:11;;;;;;;43.75;17.40;;;0.50;90.00;;;;;;5049022;28;20215;-73
2021/01/16 08:21:50;;;;;;;37.20;16.58;;;0.60;90.40;;;;;;5037901;28;20257;-74
2021/01/16 08:24:19;;;;;;;40.72;17.55;;;0.60;90.60;;;;;;5047650;28;20208;-73
2021/01/16 08:27:02;;;;;;;39.03;17.50;;;0.60;90.90;;;;;;5048530;28;20191;-72
2021/01/16 08:29:29;;;;;;;39.47;17.83;;;0.60;91.00;;;;;;5046696;28;20206;-72
2021/01/16 08:32:09;;;;;;;43.05;17.65;;;0.60;91.20;;;;;;5047723;28;20176;-72
2021/01/16 08:34:57;;;;;;;37.88;17.65;;;0.60;91.20;;;;;;5048198;28;20222;-72
2021/01/16 08:37:41;;;;;;;41.67;17.63;;;0.60;91.30;;;;;;5036027;28;20212;-73
2021/01/16 08:40:09;;;;;;;42.47;17.52;;;0.60;91.00;;;;;;5062956;28;20176;-73
2021/01/16 08:42:53;;;;;;;44.95;16.35;;;0.60;91.10;;;;;;5069884;28;20376;-74
2021/01/16 08:45:20;;;;;;;39.83;17.02;;;0.50;91.40;;;;;;5068872;28;20198;-73
2021/01/16 08:47:50;;;;;;;31.33;13.27;;;0.50;91.80;;;;;;5069737;28;20265;-71
2021/01/16 08:50:16;;;;;;;42.95;17.58;;;0.50;91.70;;;;;;5070755;28;20658;-72
2021/01/16 08:52:42;;;;;;;35.10;16.57;;;0.40;91.70;;;;;;5059192;28;20196;-73
2021/01/16 08:55:08;;;;;;;43.95;17.63;;;0.40;91.70;;;;;;5053059;28;21051;-74
2021/01/16 08:57:36;;;;;;;40.27;17.13;;;0.50;92.00;;;;;;5053659;28;20189;-74
2021/01/16 09:00:23;;;;;;;34.22;16.50;;;0.50;92.00;;;;;;5053100;28;20418;-72
2021/01/16 09:03:12;;;;;;;44.30;17.15;;;0.50;91.50;;;;;;5067841;28;20207;-72
2021/01/16 09:05:38;;;;;;;36.42;15.95;;;0.60;91.30;;;;;;5076991;28;20306;-73
2021/01/16 09:08:17;;;;;;;50.13;19.52;;;0.70;91.30;;;;;;5074978;28;20180;-72
2021/01/16 09:10:43;;;;;;;38.05;16.30;;;0.70;91.30;;;;;;5074314;28;20182;-73
2021/01/16 09:13:38;;;;;;;43.37;17.47;;;0.70;91.30;;;;;;5073743;28;20259;-75
2021/01/16 09:16:04;;;;;;;41.65;15.63;;;0.80;91.40;;;;;;5069169;28;20208;-74
2021/01/16 09:18:29;;;;;;;37.27;15.23;;;0.80;91.50;;;;;;5062918;28;20622;-72
2021/01/16 09:20:57;;;;;;;37.40;15.60;;;0.90;91.70;;;;;;5066565;28;20520;-73
2021/01/16 09:23:29;;;;;;;45.17;16.88;;;0.90;91.50;;;;;;5054173;28;20235;-73
2021/01/16 09:26:05;;;;;;;33.58;14.65;;;0.80;90.80;;;;;;5053451;28;20394;-74
2021/01/16 09:28:49;;;;;;;37.25;16.92;;;0.80;90.80;;;;;;5070436;28;20608;-73
2021/01/16 09:31:28;;;;;;;33.67;15.10;;;0.80;91.00;;;;;;5040764;28;20183;-73
2021/01/16 09:33:57;;;;;;;38.58;15.35;;;0.80;91.00;;;;;;5053032;28;20285;-72
2021/01/16 09:36:38;;;;;;;32.45;15.20;;;0.70;90.60;;;;;;5052173;28;20691;-73
2021/01/16 09:39:15;;;;;;;32.60;14.95;;;0.70;90.80;;;;;;5070629;28;20179;-73
2021/01/16 09:41:41;;;;;;;28.10;12.52;;;0.80;91.00;;;;;;5052209;28;20230;-73
2021/01/16 09:44:07;;;;;;;31.83;13.80;;;0.60;89.90;;;;;;5051472;28;20204;-73
2021/01/16 09:46:40;;;;;;;28.57;12.97;;;0.50;89.60;;;;;;5053425;28;20445;-76
2021/01/16 09:49:12;;;;;;;32.25;13.88;;;0.60;90.20;;;;;;5052237;28;20510;-74
2021/01/16 09:51:37;;;;;;;33.58;14.50;;;0.70;89.50;;;;;;5048197;28;20196;-73
2021/01/16 09:54:12;;;;;;;33.73;15.20;;;0.50;89.20;;;;;;5052147;28;20176;-74
2021/01/16 09:56:45;;;;;;;29.33;13.43;;;0.50;89.60;;;;;;5050634;28;20206;-73
2021/01/16 09:59:22;;;;;;;24.80;12.20;;;0.60;89.70;;;;;;5051413;28;20204;-73
2021/01/16 10:02:13;;;;;;;31.42;13.25;;;0.60;89.20;;;;;;5053567;28;20246;-73
2021/01/16 10:04:45;;;;;;;25.33;11.43;;;0.70;88.40;;;;;;5065786;28;20211;-73
2021/01/16 10:07:16;;;;;;;23.83;11.70;;;0.80;87.70;;;;;;5053841;28;20318;-72
2021/01/16 10:09:49;;;;;;;29.77;13.30;;;0.80;87.10;;;;;;5051593;28;20555;-74
2021/01/16 10:12:33;;;;;;;27.95;12.98;;;0.70;87.70;;;;;;5051644;28;20202;-72
2021/01/16 10:15:16;;;;;;;26.98;11.65;;;0.90;88.00;;;;;;5050717;28;20205;-72
2021/01/16 10:17:50;;;;;;;27.83;12.68;;;1.00;87.00;;;;;;5050412;28;20181;-72
2021/01/16 10:20:34;;;;;;;24.60;11.75;;;1.10;86.50;;;;;;5051254;28;20662;-72
2021/01/16 10:23:09;;;;;;;29.20;12.63;;;1.20;84.40;;;;;;5050189;28;20638;-72
2021/01/16 10:25:42;;;;;;;26.58;11.50;;;1.30;84.60;;;;;;5056137;28;20203;-73
2021/01/16 10:28:31;;;;;;;24.00;11.80;;;1.20;82.70;;;;;;5071325;28;20188;-73
2021/01/16 10:31:06;;;;;;;26.27;11.40;;;1.20;83.00;;;;;;5070091;28;20238;-73
2021/01/16 10:33:43;;;;;;;20.92;9.73;;;1.20;82.50;;;;;;5071540;28;20276;-72
2021/01/16 10:36:14;;;;;;;25.73;10.95;;;1.30;82.10;;;;;;5070279;28;20693;-72
2021/01/16 10:38:45;;;;;;;23.77;10.32;;;1.30;81.40;;;;;;5055187;28;20574;-73
2021/01/16 10:41:14;;;;;;;21.50;10.73;;;1.30;80.80;;;;;;5050837;28;20669;-72
2021/01/16 10:43:40;;;;;;;20.10;10.38;;;1.40;81.10;;;;;;5049401;28;20212;-73
2021/01/16 10:46:25;;;;;;;22.47;10.67;;;1.60;80.90;;;;;;5064493;28;20200;-72
2021/01/16 10:48:51;;;;;;;15.88;8.15;;;1.80;80.20;;;;;;5070503;28;20524;-73
2021/01/16 10:51:23;;;;;;;18.53;8.63;;;1.50;77.00;;;;;;5071306;28;20246;-72
2021/01/16 10:53:56;;;;;;;22.60;10.88;;;1.40;77.60;;;;;;5071236;28;20682;-73
2021/01/16 10:56:26;;;;;;;21.25;9.60;;;1.40;77.80;;;;;;5070900;28;20203;-73
2021/01/16 10:59:07;;;;;;;22.13;10.07;;;1.40;78.10;;;;;;5070430;28;20228;-72
2021/01/16 11:01:48;;;;;;;16.98;8.75;;;1.50;78.60;;;;;;5071193;28;20172;-72
2021/01/16 11:04:25;;;;;;;19.20;8.88;;;1.70;77.30;;;;;;5068711;28;20223;-72
2021/01/16 11:06:58;;;;;;;17.75;8.25;;;1.70;76.40;;;;;;5071358;28;20183;-72
2021/01/16 11:09:33;;;;;;;20.15;8.35;;;1.80;75.20;;;;;;5052286;28;20212;-72
2021/01/16 11:12:00;;;;;;;16.70;8.88;;;1.80;74.20;;;;;;5050401;28;20180;-72
2021/01/16 11:14:42;;;;;;;24.08;11.63;;;1.90;74.90;;;;;;5049997;28;20253;-72
2021/01/16 11:17:11;;;;;;;25.38;11.85;;;2.00;75.20;;;;;;5050550;28;20185;-72
2021/01/16 11:19:43;;;;;;;34.28;15.65;;;1.90;80.50;;;;;;5049109;28;20709;-72
2021/01/16 11:22:13;;;;;;;28.58;13.38;;;1.80;82.10;;;;;;5050564;28;20184;-72
2021/01/16 11:24:54;;;;;;;36.85;14.77;;;1.80;81.80;;;;;;5050842;28;20243;-72
2021/01/16 11:27:26;;;;;;;37.88;16.25;;;1.70;82.70;;;;;;5051626;28;20173;-72
2021/01/16 11:29:54;;;;;;;34.40;15.30;;;1.70;83.80;;;;;;5050524;28;20173;-72
2021/01/16 11:32:33;;;;;;;39.72;16.70;;;1.80;84.60;;;;;;5051893;28;20211;-73
2021/01/16 11:35:01;;;;;;;29.65;13.20;;;1.80;84.30;;;;;;5050347;28;20227;-72
2021/01/16 11:37:45;;;;;;;30.35;14.10;;;1.70;84.10;;;;;;5050690;28;20212;-72
2021/01/16 11:40:27;;;;;;;36.45;15.45;;;1.60;83.40;;;;;;5048612;28;20579;-72
2021/01/16 11:42:58;;;;;;;31.67;14.90;;;1.70;83.70;;;;;;5049088;28;20239;-73
2021/01/16 11:45:25;;;;;;;33.17;14.35;;;1.80;83.70;;;;;;5049519;28;20303;-72
2021/01/16 11:48:02;;;;;;;37.53;15.52;;;1.90;83.40;;;;;;5040173;28;20645;-72
2021/01/16 11:50:29;;;;;;;27.42;13.27;;;2.00;83.00;;;;;;5057786;28;20193;-72
2021/01/16 11:52:55;;;;;;;29.52;12.80;;;1.90;81.40;;;;;;5062521;28;20188;-73
2021/01/16 11:55:21;;;;;;;28.00;12.50;;;1.50;79.90;;;;;;5047413;28;20678;-72
2021/01/16 11:57:48;;;;;;;32.85;13.25;;;1.40;80.60;;;;;;5047525;28;20449;-73
2021/01/16 12:00:15;;;;;;;28.67;13.13;;;1.40;81.10;;;;;;5046512;28;20192;-74
2021/01/16 12:02:49;;;;;;;25.98;13.80;;;1.50;80.30;;;;;;5048444;28;20201;-72
2021/01/16 12:05:20;;;;;;;25.20;12.48;;;1.50;80.50;;;;;;5047513;28;20197;-72
2021/01/16 12:07:51;;;;;;;25.23;12.02;;;1.50;80.90;;;;;;5062765;28;20746;-73
2021/01/16 12:10:25;;;;;;;25.65;12.40;;;1.50;79.90;;;;;;5048987;28;20528;-72
2021/01/16 12:12:51;;;;;;;30.00;14.02;;;1.50;79.20;;;;;;5034425;28;20196;-73
2021/01/16 12:15:24;;;;;;;26.70;13.43;;;1.40;81.40;;;;;;5043401;28;20239;-73
2021/01/16 12:17:51;;;;;;;31.13;14.30;;;1.30;83.00;;;;;;5048458;28;20177;-72
2021/01/16 12:20:21;;;;;;;33.97;15.63;;;1.20;84.00;;;;;;5047718;28;20666;-73
2021/01/16 12:22:50;;;;;;;30.38;14.52;;;1.10;83.80;;;;;;5047315;28;20318;-73
2021/01/16 12:25:17;;;;;;;30.60;13.73;;;1.30;83.40;;;;;;5050385;28;20200;-73
2021/01/16 12:27:46;;;;;;;30.55;13.35;;;1.30;81.80;;;;;;5053811;28;20187;-73
2021/01/16 12:30:12;;;;;;;33.30;13.80;;;1.40;81.10;;;;;;5050094;28;20180;-73
2021/01/16 12:32:39;;;;;;;31.52;13.40;;;1.50;79.50;;;;;;5050924;28;20270;-72
2021/01/16 12:35:05;;;;;;;31.85;14.10;;;1.50;79.30;;;;;;5049886;28;20227;-72
2021/01/16 12:37:33;;;;;;;28.98;12.25;;;1.30;81.10;;;;;;5050448;28;20190;-71
2021/01/16 12:40:00;;;;;;;25.27;13.68;;;1.30;80.50;;;;;;5050173;28;20271;-72
2021/01/16 12:42:29;;;;;;;29.77;13.63;;;1.30;79.90;;;;;;5050362;28;20271;-73
2021/01/16 12:45:08;;;;;;;27.98;13.07;;;1.40;80.80;;;;;;5051980;28;20363;-73
2021/01/16 12:47:35;;;;;;;34.78;14.90;;;1.30;80.80;;;;;;5050195;28;20172;-73
2021/01/16 12:50:02;;;;;;;30.70;13.07;;;1.50;81.40;;;;;;5070952;28;20957;-72
2021/01/16 12:52:29;;;;;;;35.88;13.55;;;1.40;80.20;;;;;;5071135;28;20605;-72
2021/01/16 12:54:58;;;;;;;28.08;12.50;;;1.40;80.20;;;;;;5070374;28;20208;-72
2021/01/16 12:57:32;;;;;;;24.35;12.50;;;1.40;79.90;;;;;;5070532;28;20191;-71